Time,TemperatureF,DewpointF,PressureIn,WindDirection,WindDirectionDegrees,WindSpeedMPH,WindSpeedGustMPH,Humidity,HourlyPrecipIn,Conditions,Clouds,dailyrainin,SolarRadiationWatts/m^2,SoftwareType,DateUTC
2013-03-16 00:02:00,50.0,41.0,-100.00,WSW,246,3.0,-999.0,71,0.00,,,-99.99,0.000000,,2013-03-16 04:02:00,
2013-03-16 00:13:00,49.0,42.0,-100.00,South,181,3.0,-999.0,76,0.00,,,-99.99,0.000000,,2013-03-16 04:13:00,
2013-03-16 00:23:00,49.0,42.0,-100.00,South,181,3.0,-999.0,76,0.00,,,-99.99,0.000000,,2013-03-16 04:23:00,
2013-03-16 00:33:00,48.0,41.0,-100.00,SW,232,2.0,-999.0,77,0.00,,,-99.99,0.000000,,2013-03-16 04:33:00,
2013-03-16 00:43:00,47.0,41.0,-100.00,SW,222,1.0,-999.0,78,0.00,,,-99.99,0.000000,,2013-03-16 04:43:00,
2013-03-16 00:53:00,47.0,41.0,-100.00,SW,222,1.0,-999.0,78,0.00,,,-99.99,0.000000,,2013-03-16 04:53:00,
2013-03-16 01:02:00,47.0,41.0,-100.00,SW,228,1.0,-999.0,79,0.00,,,-99.99,0.000000,,2013-03-16 05:02:00,
2013-03-16 01:12:00,46.0,41.0,-100.00,WSW,256,2.0,-999.0,81,0.00,,,-99.99,0.000000,,2013-03-16 05:12:00,
2013-03-16 01:22:00,46.0,41.0,-100.00,WSW,256,2.0,-999.0,81,0.00,,,-99.99,0.000000,,2013-03-16 05:22:00,
2013-03-16 01:32:00,46.0,41.0,-100.00,WNW,284,1.0,-999.0,83,0.00,,,-99.99,0.000000,,2013-03-16 05:32:00,
2013-03-16 01:42:00,46.0,42.0,-100.00,West,267,2.0,-999.0,84,0.00,,,-99.99,0.000000,,2013-03-16 05:42:00,
2013-03-16 01:53:00,46.0,42.0,-100.00,West,267,2.0,-999.0,84,0.00,,,-99.99,0.000000,,2013-03-16 05:53:00,
2013-03-16 02:02:00,46.0,42.0,-100.00,SSE,148,2.0,-999.0,85,0.00,,,-99.99,0.000000,,2013-03-16 06:02:00,
2013-03-16 02:12:00,46.0,42.0,-100.00,East,91,1.0,-999.0,86,0.00,,,-99.99,0.000000,,2013-03-16 06:12:00,
2013-03-16 02:22:00,46.0,42.0,-100.00,East,91,1.0,-999.0,86,0.00,,,-99.99,0.000000,,2013-03-16 06:22:00,
2013-03-16 02:32:00,46.0,43.0,-100.00,North,4,1.0,-999.0,88,0.00,,,-99.99,0.000000,,2013-03-16 06:32:00,
2013-03-16 02:42:00,45.0,43.0,-100.00,SSW,199,1.0,-999.0,89,0.00,,,-99.99,0.000000,,2013-03-16 06:42:00,
2013-03-16 02:52:00,45.0,43.0,-100.00,SSW,199,1.0,-999.0,89,0.00,,,-99.99,0.000000,,2013-03-16 06:52:00,
2013-03-16 03:02:00,45.0,42.0,-100.00,SE,129,1.0,-999.0,90,0.00,,,-99.99,0.000000,,2013-03-16 07:02:00,
2013-03-16 03:12:00,44.0,42.0,-100.00,East,94,1.0,-999.0,91,0.00,,,-99.99,0.000000,,2013-03-16 07:12:00,
2013-03-16 03:22:00,44.0,42.0,-100.00,East,94,1.0,-999.0,91,0.00,,,-99.99,0.000000,,2013-03-16 07:22:00,
2013-03-16 03:32:00,44.0,42.0,-100.00,North,356,0.0,-999.0,92,0.00,,,-99.99,0.000000,,2013-03-16 07:32:00,
2013-03-16 03:42:00,44.0,42.0,-100.00,SSW,202,1.0,-999.0,92,0.00,,,-99.99,0.000000,,2013-03-16 07:42:00,
2013-03-16 03:52:00,44.0,42.0,-100.00,SSW,202,1.0,-999.0,92,0.00,,,-99.99,0.000000,,2013-03-16 07:52:00,
2013-03-16 04:02:00,44.0,41.0,-100.00,South,169,2.0,-999.0,91,0.00,,,-99.99,0.000000,,2013-03-16 08:02:00,
2013-03-16 04:12:00,43.0,41.0,-100.00,SSE,151,2.0,-999.0,92,0.00,,,-99.99,0.000000,,2013-03-16 08:12:00,
2013-03-16 04:23:00,43.0,41.0,-100.00,SSE,151,2.0,-999.0,92,0.00,,,-99.99,0.000000,,2013-03-16 08:23:00,
2013-03-16 04:32:00,43.0,41.0,-100.00,SSE,154,2.0,-999.0,92,0.00,,,-99.99,0.000000,,2013-03-16 08:32:00,
2013-03-16 04:42:00,43.0,41.0,-100.00,South,173,1.0,-999.0,93,0.00,,,-99.99,0.000000,,2013-03-16 08:42:00,
2013-03-16 04:52:00,43.0,41.0,-100.00,South,173,1.0,-999.0,93,0.00,,,-99.99,0.000000,,2013-03-16 08:52:00,
2013-03-16 05:02:00,43.0,41.0,-100.00,SSW,197,1.0,-999.0,93,0.00,,,-99.99,0.000000,,2013-03-16 09:02:00,
2013-03-16 05:12:00,43.0,42.0,-100.00,SE,136,2.0,-999.0,93,0.00,,,-99.99,0.000000,,2013-03-16 09:12:00,
2013-03-16 05:22:00,43.0,42.0,-100.00,SE,136,2.0,-999.0,93,0.00,,,-99.99,0.000000,,2013-03-16 09:22:00,
2013-03-16 05:33:00,43.0,41.0,-100.00,SE,130,2.0,-999.0,93,0.00,,,-99.99,0.000000,,2013-03-16 09:33:00,
2013-03-16 05:42:00,43.0,41.0,-100.00,SSE,159,2.0,-999.0,94,0.00,,,-99.99,0.000000,,2013-03-16 09:42:00,
2013-03-16 05:53:00,43.0,41.0,-100.00,SSE,159,2.0,-999.0,94,0.00,,,-99.99,0.000000,,2013-03-16 09:53:00,
2013-03-16 06:03:00,42.0,41.0,-100.00,SE,134,2.0,-999.0,94,0.00,,,-99.99,0.000000,,2013-03-16 10:03:00,
2013-03-16 06:12:00,42.0,41.0,-100.00,SE,134,2.0,-999.0,94,0.00,,,-99.99,0.000000,,2013-03-16 10:12:00,
2013-03-16 06:23:00,43.0,41.0,-100.00,SE,135,2.0,-999.0,94,0.00,,,-99.99,0.000000,,2013-03-16 10:23:00,
2013-03-16 06:32:00,43.0,41.0,-100.00,South,170,3.0,-999.0,95,0.00,,,-99.99,0.000000,,2013-03-16 10:32:00,
2013-03-16 06:42:00,43.0,42.0,-100.00,South,174,3.0,-999.0,95,0.00,,,-99.99,0.000000,,2013-03-16 10:42:00,
2013-03-16 06:53:00,43.0,42.0,-100.00,South,174,3.0,-999.0,95,0.00,,,-99.99,0.000000,,2013-03-16 10:53:00,
2013-03-16 07:03:00,43.0,42.0,-100.00,South,185,2.0,-999.0,96,0.00,,,-99.99,0.000000,,2013-03-16 11:03:00,
2013-03-16 07:12:00,44.0,43.0,-100.00,SSW,198,2.0,-999.0,96,0.00,,,-99.99,0.000000,,2013-03-16 11:12:00,
2013-03-16 07:22:00,44.0,43.0,-100.00,SSW,198,2.0,-999.0,96,0.00,,,-99.99,0.000000,,2013-03-16 11:22:00,
2013-03-16 07:32:00,44.0,43.0,-100.00,SSW,199,2.0,-999.0,96,0.00,,,-99.99,0.000000,,2013-03-16 11:32:00,
2013-03-16 07:43:00,44.0,43.0,-100.00,South,182,3.0,-999.0,96,0.00,,,-99.99,0.800000,,2013-03-16 11:43:00,
2013-03-16 07:53:00,44.0,43.0,-100.00,South,182,3.0,-999.0,96,0.00,,,-99.99,0.800000,,2013-03-16 11:53:00,
2013-03-16 08:02:00,44.0,43.0,-100.00,South,180,3.0,-999.0,97,0.00,,,-99.99,6.000000,,2013-03-16 12:02:00,
2013-03-16 08:12:00,45.0,44.0,-100.00,South,174,3.0,-999.0,97,0.00,,,-99.99,26.700001,,2013-03-16 12:12:00,
2013-03-16 08:22:00,45.0,44.0,-100.00,South,174,3.0,-999.0,97,0.00,,,-99.99,26.700001,,2013-03-16 12:22:00,
2013-03-16 08:32:00,46.0,45.0,-100.00,South,183,3.0,-999.0,97,0.00,,,-99.99,78.699997,,2013-03-16 12:32:00,
2013-03-16 08:42:00,49.0,48.0,-100.00,South,178,4.0,-999.0,96,0.00,,,-99.99,141.500000,,2013-03-16 12:42:00,
2013-03-16 08:53:00,49.0,48.0,-100.00,South,178,4.0,-999.0,96,0.00,,,-99.99,141.500000,,2013-03-16 12:53:00,
2013-03-16 09:02:00,51.0,49.0,-100.00,South,181,4.0,-999.0,95,0.00,,,-99.99,192.600006,,2013-03-16 13:02:00,
2013-03-16 09:12:00,51.0,49.0,-100.00,South,181,4.0,-999.0,95,0.00,,,-99.99,192.600006,,2013-03-16 13:12:00,
2013-03-16 09:22:00,52.0,50.0,-100.00,South,188,5.0,-999.0,93,0.00,,,-99.99,243.699997,,2013-03-16 13:22:00,
2013-03-16 09:32:00,53.0,51.0,-100.00,South,188,5.0,-999.0,91,0.00,,,-99.99,295.200012,,2013-03-16 13:32:00,
2013-03-16 09:42:00,56.0,52.0,-100.00,South,186,6.0,-999.0,87,0.00,,,-99.99,349.100006,,2013-03-16 13:42:00,
2013-03-16 09:53:00,56.0,52.0,-100.00,South,186,6.0,-999.0,87,0.00,,,-99.99,349.100006,,2013-03-16 13:53:00,
2013-03-16 10:03:00,58.0,52.0,-100.00,South,188,6.0,-999.0,79,0.00,,,-99.99,402.799988,,2013-03-16 14:03:00,
2013-03-16 10:12:00,60.0,51.0,-100.00,SSW,198,5.0,-999.0,72,0.00,,,-99.99,455.299988,,2013-03-16 14:12:00,
2013-03-16 10:22:00,60.0,51.0,-100.00,SSW,198,5.0,-999.0,72,0.00,,,-99.99,455.299988,,2013-03-16 14:22:00,
2013-03-16 10:32:00,62.0,51.0,-100.00,SW,221,4.0,-999.0,66,0.00,,,-99.99,498.200012,,2013-03-16 14:32:00,
2013-03-16 10:42:00,63.0,50.0,-100.00,SW,228,5.0,-999.0,62,0.00,,,-99.99,555.299988,,2013-03-16 14:42:00,
2013-03-16 10:52:00,63.0,50.0,-100.00,SW,228,5.0,-999.0,62,0.00,,,-99.99,555.299988,,2013-03-16 14:52:00,
2013-03-16 11:03:00,64.0,50.0,-100.00,SSW,206,5.0,-999.0,59,0.00,,,-99.99,602.599976,,2013-03-16 15:03:00,
2013-03-16 11:13:00,65.0,47.0,-100.00,SSW,212,6.0,-999.0,53,0.00,,,-99.99,646.099976,,2013-03-16 15:13:00,
2013-03-16 11:22:00,65.0,47.0,-100.00,SSW,212,6.0,-999.0,53,0.00,,,-99.99,646.099976,,2013-03-16 15:22:00,
2013-03-16 11:33:00,66.0,46.0,-100.00,SW,215,7.0,-999.0,47,0.00,,,-99.99,687.700012,,2013-03-16 15:33:00,
2013-03-16 11:43:00,68.0,44.0,-100.00,SW,216,7.0,-999.0,42,0.00,,,-99.99,726.000000,,2013-03-16 15:43:00,
2013-03-16 11:53:00,68.0,44.0,-100.00,SW,216,7.0,-999.0,42,0.00,,,-99.99,726.000000,,2013-03-16 15:53:00,
2013-03-16 12:03:00,69.0,43.0,-100.00,SW,219,8.0,-999.0,39,0.00,,,-99.99,760.000000,,2013-03-16 16:03:00,
2013-03-16 12:12:00,69.0,43.0,-100.00,SSW,210,8.0,-999.0,38,0.00,,,-99.99,791.000000,,2013-03-16 16:12:00,
2013-03-16 12:23:00,69.0,43.0,-100.00,SSW,210,8.0,-999.0,38,0.00,,,-99.99,791.000000,,2013-03-16 16:23:00,
2013-03-16 12:33:00,70.0,43.0,-100.00,SSW,209,9.0,-999.0,37,0.00,,,-99.99,817.000000,,2013-03-16 16:33:00,
2013-03-16 12:42:00,71.0,43.0,-100.00,SSW,207,8.0,-999.0,36,0.00,,,-99.99,841.000000,,2013-03-16 16:42:00,
2013-03-16 12:53:00,71.0,43.0,-100.00,SSW,207,8.0,-999.0,36,0.00,,,-99.99,841.000000,,2013-03-16 16:53:00,
2013-03-16 13:03:00,72.0,43.0,-100.00,SSW,202,9.0,-999.0,35,0.00,,,-99.99,860.000000,,2013-03-16 17:03:00,
2013-03-16 13:13:00,72.0,42.0,-100.00,SSW,206,9.0,-999.0,33,0.00,,,-99.99,873.000000,,2013-03-16 17:13:00,
2013-03-16 13:23:00,72.0,42.0,-100.00,SSW,206,9.0,-999.0,33,0.00,,,-99.99,873.000000,,2013-03-16 17:23:00,
2013-03-16 13:32:00,73.0,42.0,-100.00,SSW,207,8.0,-999.0,33,0.00,,,-99.99,883.000000,,2013-03-16 17:32:00,
2013-03-16 13:42:00,73.0,42.0,-100.00,SW,220,6.0,-999.0,32,0.00,,,-99.99,889.000000,,2013-03-16 17:42:00,
2013-03-16 13:53:00,73.0,42.0,-100.00,SW,220,6.0,-999.0,32,0.00,,,-99.99,889.000000,,2013-03-16 17:53:00,
2013-03-16 14:02:00,74.0,42.0,-100.00,SW,223,7.0,-999.0,31,0.00,,,-99.99,891.000000,,2013-03-16 18:02:00,
2013-03-16 14:13:00,74.0,42.0,-100.00,SW,220,7.0,-999.0,30,0.00,,,-99.99,889.000000,,2013-03-16 18:13:00,
2013-03-16 14:23:00,74.0,42.0,-100.00,SW,220,7.0,-999.0,30,0.00,,,-99.99,889.000000,,2013-03-16 18:23:00,
2013-03-16 14:33:00,76.0,41.0,-100.00,SW,235,7.0,-999.0,29,0.00,,,-99.99,881.000000,,2013-03-16 18:33:00,
2013-03-16 14:43:00,76.0,41.0,-100.00,West,263,5.0,-999.0,27,0.00,,,-99.99,871.000000,,2013-03-16 18:43:00,
2013-03-16 14:53:00,76.0,41.0,-100.00,West,263,5.0,-999.0,27,0.00,,,-99.99,871.000000,,2013-03-16 18:53:00,
2013-03-16 15:02:00,76.0,40.0,-100.00,WNW,283,6.0,-999.0,27,0.00,,,-99.99,858.000000,,2013-03-16 19:02:00,
2013-03-16 15:12:00,76.0,41.0,-100.00,West,272,5.0,-999.0,27,0.00,,,-99.99,841.000000,,2013-03-16 19:12:00,
2013-03-16 15:22:00,76.0,41.0,-100.00,West,272,5.0,-999.0,27,0.00,,,-99.99,841.000000,,2013-03-16 19:22:00,
2013-03-16 15:32:00,77.0,41.0,-100.00,West,270,6.0,-999.0,27,0.00,,,-99.99,818.000000,,2013-03-16 19:32:00,
2013-03-16 15:42:00,78.0,40.0,-100.00,WSW,253,7.0,-999.0,26,0.00,,,-99.99,791.000000,,2013-03-16 19:42:00,
2013-03-16 15:53:00,78.0,40.0,-100.00,WSW,253,7.0,-999.0,26,0.00,,,-99.99,791.000000,,2013-03-16 19:53:00,
2013-03-16 16:02:00,78.0,40.0,-100.00,WSW,239,7.0,-999.0,25,0.00,,,-99.99,759.000000,,2013-03-16 20:02:00,
2013-03-16 16:12:00,78.0,40.0,-100.00,WSW,239,7.0,-999.0,25,0.00,,,-99.99,759.000000,,2013-03-16 20:12:00,
2013-03-16 16:22:00,78.0,40.0,-100.00,SW,234,7.0,-999.0,25,0.00,,,-99.99,721.000000,,2013-03-16 20:22:00,
2013-03-16 16:32:00,79.0,40.0,-100.00,SW,218,6.0,-999.0,25,0.00,,,-99.99,684.000000,,2013-03-16 20:32:00,
2013-03-16 16:42:00,78.0,40.0,-100.00,SW,219,8.0,-999.0,25,0.00,,,-99.99,639.400024,,2013-03-16 20:42:00,
2013-03-16 16:53:00,78.0,40.0,-100.00,SW,219,8.0,-999.0,25,0.00,,,-99.99,639.400024,,2013-03-16 20:53:00,
2013-03-16 17:02:00,79.0,40.0,-100.00,SSW,207,8.0,-999.0,25,0.00,,,-99.99,596.000000,,2013-03-16 21:02:00,
2013-03-16 17:12:00,78.0,40.0,-100.00,SW,225,7.0,-999.0,25,0.00,,,-99.99,546.900024,,2013-03-16 21:12:00,
2013-03-16 17:22:00,78.0,40.0,-100.00,SW,225,7.0,-999.0,25,0.00,,,-99.99,546.900024,,2013-03-16 21:22:00,
2013-03-16 17:33:00,79.0,39.0,-100.00,WSW,257,5.0,-999.0,24,0.00,,,-99.99,495.899994,,2013-03-16 21:33:00,
2013-03-16 17:43:00,79.0,40.0,-100.00,SW,227,6.0,-999.0,25,0.00,,,-99.99,442.299988,,2013-03-16 21:43:00,
2013-03-16 17:53:00,79.0,40.0,-100.00,SW,227,6.0,-999.0,25,0.00,,,-99.99,442.299988,,2013-03-16 21:53:00,
2013-03-16 18:03:00,78.0,41.0,-100.00,WSW,255,7.0,-999.0,26,0.00,,,-99.99,283.600006,,2013-03-16 22:03:00,
2013-03-16 18:13:00,78.0,40.0,-100.00,WSW,252,6.0,-999.0,26,0.00,,,-99.99,210.399994,,2013-03-16 22:13:00,
2013-03-16 18:23:00,78.0,40.0,-100.00,WSW,252,6.0,-999.0,26,0.00,,,-99.99,210.399994,,2013-03-16 22:23:00,
2013-03-16 18:33:00,77.0,40.0,-100.00,West,265,7.0,-999.0,26,0.00,,,-99.99,253.300003,,2013-03-16 22:33:00,
2013-03-16 18:42:00,77.0,40.0,-100.00,West,266,6.0,-999.0,26,0.00,,,-99.99,172.399994,,2013-03-16 22:42:00,
2013-03-16 18:53:00,77.0,40.0,-100.00,West,266,6.0,-999.0,26,0.00,,,-99.99,172.399994,,2013-03-16 22:53:00,
2013-03-16 19:02:00,76.0,40.0,-100.00,WSW,253,6.0,-999.0,26,0.00,,,-99.99,154.500000,,2013-03-16 23:02:00,
2013-03-16 19:13:00,74.0,40.0,-100.00,WSW,257,5.0,-999.0,29,0.00,,,-99.99,36.000000,,2013-03-16 23:13:00,
2013-03-16 19:22:00,74.0,40.0,-100.00,WSW,257,5.0,-999.0,29,0.00,,,-99.99,36.000000,,2013-03-16 23:22:00,
2013-03-16 19:33:00,74.0,40.0,-100.00,WSW,257,5.0,-999.0,29,0.00,,,-99.99,36.000000,,2013-03-16 23:33:00,
2013-03-16 19:42:00,72.0,41.0,-100.00,WSW,256,4.0,-999.0,33,0.00,,,-99.99,11.900000,,2013-03-16 23:42:00,
2013-03-16 19:53:00,72.0,41.0,-100.00,WSW,256,4.0,-999.0,33,0.00,,,-99.99,11.900000,,2013-03-16 23:53:00,
2013-03-16 20:02:00,70.0,41.0,-100.00,West,262,4.0,-999.0,34,0.00,,,-99.99,3.000000,,2013-03-17 00:02:00,
2013-03-16 20:12:00,69.0,40.0,-100.00,West,260,4.0,-999.0,33,0.00,,,-99.99,0.200000,,2013-03-17 00:12:00,
2013-03-16 20:22:00,69.0,40.0,-100.00,West,260,4.0,-999.0,33,0.00,,,-99.99,0.200000,,2013-03-17 00:22:00,
2013-03-16 20:32:00,68.0,40.0,-100.00,West,264,3.0,-999.0,35,0.00,,,-99.99,0.000000,,2013-03-17 00:32:00,
2013-03-16 20:42:00,67.0,40.0,-100.00,West,269,4.0,-999.0,37,0.00,,,-99.99,0.000000,,2013-03-17 00:42:00,
2013-03-16 20:52:00,67.0,40.0,-100.00,West,269,4.0,-999.0,37,0.00,,,-99.99,0.000000,,2013-03-17 00:52:00,
2013-03-16 21:02:00,66.0,39.0,-100.00,West,260,4.0,-999.0,37,0.00,,,-99.99,0.000000,,2013-03-17 01:02:00,
2013-03-16 21:12:00,66.0,39.0,-100.00,West,269,4.0,-999.0,37,0.00,,,-99.99,0.000000,,2013-03-17 01:12:00,
2013-03-16 21:22:00,66.0,39.0,-100.00,West,269,4.0,-999.0,37,0.00,,,-99.99,0.000000,,2013-03-17 01:22:00,
2013-03-16 21:32:00,65.0,39.0,-100.00,West,271,2.0,-999.0,38,0.00,,,-99.99,0.000000,,2013-03-17 01:32:00,
2013-03-16 21:42:00,64.0,39.0,-100.00,West,270,2.0,-999.0,40,0.00,,,-99.99,0.000000,,2013-03-17 01:42:00,
2013-03-16 21:53:00,64.0,39.0,-100.00,West,270,2.0,-999.0,40,0.00,,,-99.99,0.000000,,2013-03-17 01:53:00,
2013-03-16 22:03:00,63.0,41.0,-100.00,WSW,251,3.0,-999.0,44,0.00,,,-99.99,0.000000,,2013-03-17 02:03:00,
2013-03-16 22:13:00,62.0,41.0,-100.00,WSW,237,3.0,-999.0,45,0.00,,,-99.99,0.000000,,2013-03-17 02:13:00,
2013-03-16 22:22:00,62.0,41.0,-100.00,WSW,237,3.0,-999.0,45,0.00,,,-99.99,0.000000,,2013-03-17 02:22:00,
2013-03-16 22:33:00,62.0,41.0,-100.00,WSW,239,5.0,-999.0,45,0.00,,,-99.99,0.000000,,2013-03-17 02:33:00,
2013-03-16 22:43:00,62.0,40.0,-100.00,WSW,241,4.0,-999.0,43,0.00,,,-99.99,0.000000,,2013-03-17 02:43:00,
2013-03-16 22:53:00,62.0,40.0,-100.00,WSW,241,4.0,-999.0,43,0.00,,,-99.99,0.000000,,2013-03-17 02:53:00,
2013-03-16 23:02:00,61.0,39.0,-100.00,WSW,251,3.0,-999.0,44,0.00,,,-99.99,0.000000,,2013-03-17 03:02:00,
2013-03-16 23:12:00,60.0,40.0,-100.00,WNW,283,2.0,-999.0,47,0.00,,,-99.99,0.000000,,2013-03-17 03:12:00,
2013-03-16 23:22:00,60.0,40.0,-100.00,WNW,283,2.0,-999.0,47,0.00,,,-99.99,0.000000,,2013-03-17 03:22:00,
2013-03-16 23:33:00,58.0,40.0,-100.00,West,272,2.0,-999.0,51,0.00,,,-99.99,0.000000,,2013-03-17 03:33:00,
2013-03-16 23:43:00,58.0,41.0,-100.00,WSW,243,3.0,-999.0,53,0.00,,,-99.99,0.000000,,2013-03-17 03:43:00,
2013-03-16 23:53:00,58.0,41.0,-100.00,WSW,243,3.0,-999.0,53,0.00,,,-99.99,0.000000,,2013-03-17 03:53:00,